Terminal Aerodrome Forecast
Issued by NWS Sioux Falls, SD

Home | Current Version | Previous Version | Text Only | Print | Product List | Glossary On
Versions: 1 2 3 4 5 6 7 8 9 10 11 12 13 14 15 16 17 18
000
FTUS43 KFSD 171527 AAB
TAFFSD
TAF AMD
KFSD 171527Z 1715/1812 28006KT 4SM BR BKN004
     FM171700 30009KT P6SM BKN060
     FM171900 30011G19KT P6SM SCT030
     FM180300 VRB03KT P6SM SCT200
     FM180900 15013G19KT P6SM BKN080 WS015/17040KT=

USA.gov is the U.S. government's official web portal to all federal, state and local government web resources and services.